sensor_id;sensor_type;location;lat;lon;timestamp;P1;durP1;ratioP1;P2;durP2;ratioP2
16693;SDS011;39538;52.196;9.892;2022-08-26T00:00:34;406.83;;;386.80;;
16693;SDS011;39538;52.196;9.892;2022-08-26T00:03:00;383.50;;;364.37;;
16693;SDS011;39538;52.196;9.892;2022-08-26T00:05:26;392.80;;;372.80;;
16693;SDS011;39538;52.196;9.892;2022-08-26T00:07:54;403.87;;;383.97;;
16693;SDS011;39538;52.196;9.892;2022-08-26T00:10:21;408.40;;;388.07;;
16693;SDS011;39538;52.196;9.892;2022-08-26T00:12:48;418.87;;;397.07;;
16693;SDS011;39538;52.196;9.892;2022-08-26T00:15:20;387.00;;;367.73;;
16693;SDS011;39538;52.196;9.892;2022-08-26T00:17:48;406.60;;;386.10;;
16693;SDS011;39538;52.196;9.892;2022-08-26T00:20:17;382.77;;;363.97;;
16693;SDS011;39538;52.196;9.892;2022-08-26T00:22:45;364.13;;;345.93;;
16693;SDS011;39538;52.196;9.892;2022-08-26T00:25:14;355.97;;;338.47;;
16693;SDS011;39538;52.196;9.892;2022-08-26T00:27:41;351.93;;;334.43;;
16693;SDS011;39538;52.196;9.892;2022-08-26T00:30:09;362.53;;;344.23;;
16693;SDS011;39538;52.196;9.892;2022-08-26T00:32:38;352.83;;;334.57;;
16693;SDS011;39538;52.196;9.892;2022-08-26T00:35:05;360.53;;;343.27;;
16693;SDS011;39538;52.196;9.892;2022-08-26T00:37:32;388.47;;;369.30;;
16693;SDS011;39538;52.196;9.892;2022-08-26T00:39:59;395.33;;;375.40;;
16693;SDS011;39538;52.196;9.892;2022-08-26T00:42:26;371.70;;;352.97;;
16693;SDS011;39538;52.196;9.892;2022-08-26T00:44:53;373.03;;;354.33;;
16693;SDS011;39538;52.196;9.892;2022-08-26T00:47:27;367.10;;;349.20;;
16693;SDS011;39538;52.196;9.892;2022-08-26T00:49:57;375.90;;;356.63;;
16693;SDS011;39538;52.196;9.892;2022-08-26T00:52:25;391.10;;;372.17;;
16693;SDS011;39538;52.196;9.892;2022-08-26T00:54:53;405.67;;;384.87;;
16693;SDS011;39538;52.196;9.892;2022-08-26T00:57:24;416.00;;;394.57;;
16693;SDS011;39538;52.196;9.892;2022-08-26T00:59:53;429.77;;;408.07;;
16693;SDS011;39538;52.196;9.892;2022-08-26T01:02:23;420.50;;;398.83;;
16693;SDS011;39538;52.196;9.892;2022-08-26T01:04:50;432.80;;;411.27;;
16693;SDS011;39538;52.196;9.892;2022-08-26T01:07:18;411.03;;;390.43;;
16693;SDS011;39538;52.196;9.892;2022-08-26T01:09:45;419.57;;;398.10;;
16693;SDS011;39538;52.196;9.892;2022-08-26T01:12:11;419.00;;;396.73;;
16693;SDS011;39538;52.196;9.892;2022-08-26T01:14:38;434.17;;;411.67;;
16693;SDS011;39538;52.196;9.892;2022-08-26T01:17:07;422.20;;;400.77;;
16693;SDS011;39538;52.196;9.892;2022-08-26T01:19:35;430.47;;;407.50;;
16693;SDS011;39538;52.196;9.892;2022-08-26T01:22:07;424.00;;;402.17;;
16693;SDS011;39538;52.196;9.892;2022-08-26T01:24:38;421.53;;;399.30;;
16693;SDS011;39538;52.196;9.892;2022-08-26T01:27:07;422.03;;;399.87;;
16693;SDS011;39538;52.196;9.892;2022-08-26T01:29:35;416.43;;;394.27;;
16693;SDS011;39538;52.196;9.892;2022-08-26T01:32:04;414.60;;;392.67;;
16693;SDS011;39538;52.196;9.892;2022-08-26T01:34:35;419.97;;;398.00;;
16693;SDS011;39538;52.196;9.892;2022-08-26T01:37:11;410.03;;;389.43;;
16693;SDS011;39538;52.196;9.892;2022-08-26T01:39:41;407.20;;;386.47;;
16693;SDS011;39538;52.196;9.892;2022-08-26T01:42:10;407.17;;;385.93;;
16693;SDS011;39538;52.196;9.892;2022-08-26T01:44:39;390.50;;;371.67;;
16693;SDS011;39538;52.196;9.892;2022-08-26T01:47:10;378.23;;;360.50;;
16693;SDS011;39538;52.196;9.892;2022-08-26T01:49:38;385.57;;;366.93;;
16693;SDS011;39538;52.196;9.892;2022-08-26T01:52:05;374.07;;;355.27;;
16693;SDS011;39538;52.196;9.892;2022-08-26T01:54:35;370.90;;;353.20;;
16693;SDS011;39538;52.196;9.892;2022-08-26T01:57:03;386.30;;;367.77;;
16693;SDS011;39538;52.196;9.892;2022-08-26T01:59:30;377.80;;;358.87;;
16693;SDS011;39538;52.196;9.892;2022-08-26T02:01:56;369.43;;;351.43;;
16693;SDS011;39538;52.196;9.892;2022-08-26T02:04:24;377.07;;;358.27;;
16693;SDS011;39538;52.196;9.892;2022-08-26T02:06:54;371.13;;;352.67;;
16693;SDS011;39538;52.196;9.892;2022-08-26T02:09:22;356.90;;;339.43;;
16693;SDS011;39538;52.196;9.892;2022-08-26T02:11:49;373.73;;;355.43;;
16693;SDS011;39538;52.196;9.892;2022-08-26T02:14:18;379.80;;;360.40;;
16693;SDS011;39538;52.196;9.892;2022-08-26T02:16:48;372.83;;;354.67;;
16693;SDS011;39538;52.196;9.892;2022-08-26T02:19:19;372.07;;;354.30;;
16693;SDS011;39538;52.196;9.892;2022-08-26T02:21:47;366.97;;;348.57;;
16693;SDS011;39538;52.196;9.892;2022-08-26T02:24:16;362.57;;;345.40;;
16693;SDS011;39538;52.196;9.892;2022-08-26T02:26:45;374.70;;;356.53;;
16693;SDS011;39538;52.196;9.892;2022-08-26T02:29:15;368.37;;;349.87;;
16693;SDS011;39538;52.196;9.892;2022-08-26T02:31:48;380.20;;;360.57;;
16693;SDS011;39538;52.196;9.892;2022-08-26T02:34:18;373.13;;;355.40;;
16693;SDS011;39538;52.196;9.892;2022-08-26T02:36:46;370.40;;;351.90;;
16693;SDS011;39538;52.196;9.892;2022-08-26T02:39:13;367.90;;;350.07;;
16693;SDS011;39538;52.196;9.892;2022-08-26T02:41:40;376.10;;;358.07;;
16693;SDS011;39538;52.196;9.892;2022-08-26T02:44:07;367.37;;;349.60;;
16693;SDS011;39538;52.196;9.892;2022-08-26T02:46:36;387.07;;;368.37;;
16693;SDS011;39538;52.196;9.892;2022-08-26T02:49:03;378.57;;;359.80;;
16693;SDS011;39538;52.196;9.892;2022-08-26T02:51:29;393.80;;;374.47;;
16693;SDS011;39538;52.196;9.892;2022-08-26T02:53:56;378.33;;;359.70;;
16693;SDS011;39538;52.196;9.892;2022-08-26T02:56:22;376.63;;;358.53;;
16693;SDS011;39538;52.196;9.892;2022-08-26T02:58:49;400.33;;;380.07;;
16693;SDS011;39538;52.196;9.892;2022-08-26T03:01:20;376.40;;;358.10;;
16693;SDS011;39538;52.196;9.892;2022-08-26T03:03:49;371.57;;;353.63;;
16693;SDS011;39538;52.196;9.892;2022-08-26T03:06:16;383.90;;;364.60;;
16693;SDS011;39538;52.196;9.892;2022-08-26T03:08:42;380.23;;;361.23;;
16693;SDS011;39538;52.196;9.892;2022-08-26T03:11:09;384.50;;;364.97;;
16693;SDS011;39538;52.196;9.892;2022-08-26T03:13:36;388.67;;;369.03;;
16693;SDS011;39538;52.196;9.892;2022-08-26T03:16:03;375.97;;;357.00;;
16693;SDS011;39538;52.196;9.892;2022-08-26T03:18:29;366.77;;;349.43;;
16693;SDS011;39538;52.196;9.892;2022-08-26T03:20:57;373.70;;;355.33;;
16693;SDS011;39538;52.196;9.892;2022-08-26T03:23:23;378.47;;;360.23;;
16693;SDS011;39538;52.196;9.892;2022-08-26T03:25:50;374.40;;;356.50;;
16693;SDS011;39538;52.196;9.892;2022-08-26T03:28:17;363.60;;;346.33;;
16693;SDS011;39538;52.196;9.892;2022-08-26T03:30:44;371.87;;;354.33;;
16693;SDS011;39538;52.196;9.892;2022-08-26T03:33:10;376.43;;;358.57;;
16693;SDS011;39538;52.196;9.892;2022-08-26T03:35:38;367.60;;;349.60;;
16693;SDS011;39538;52.196;9.892;2022-08-26T03:38:08;370.33;;;352.40;;
16693;SDS011;39538;52.196;9.892;2022-08-26T03:40:41;369.23;;;351.23;;
16693;SDS011;39538;52.196;9.892;2022-08-26T03:43:08;377.90;;;359.63;;
16693;SDS011;39538;52.196;9.892;2022-08-26T03:45:36;372.33;;;354.00;;
16693;SDS011;39538;52.196;9.892;2022-08-26T03:48:04;380.73;;;362.17;;
16693;SDS011;39538;52.196;9.892;2022-08-26T03:50:31;378.17;;;359.07;;
16693;SDS011;39538;52.196;9.892;2022-08-26T03:52:58;381.50;;;362.40;;
16693;SDS011;39538;52.196;9.892;2022-08-26T03:55:28;381.07;;;362.07;;
16693;SDS011;39538;52.196;9.892;2022-08-26T03:57:56;378.43;;;358.87;;
16693;SDS011;39538;52.196;9.892;2022-08-26T04:00:22;399.97;;;380.23;;
16693;SDS011;39538;52.196;9.892;2022-08-26T04:02:50;386.90;;;367.97;;
16693;SDS011;39538;52.196;9.892;2022-08-26T04:05:17;392.43;;;373.10;;
16693;SDS011;39538;52.196;9.892;2022-08-26T04:07:45;403.53;;;383.57;;
16693;SDS011;39538;52.196;9.892;2022-08-26T04:10:13;415.93;;;395.10;;
16693;SDS011;39538;52.196;9.892;2022-08-26T04:12:43;402.40;;;382.30;;
16693;SDS011;39538;52.196;9.892;2022-08-26T04:15:11;389.80;;;370.50;;
16693;SDS011;39538;52.196;9.892;2022-08-26T04:17:39;387.83;;;368.17;;
16693;SDS011;39538;52.196;9.892;2022-08-26T04:20:06;393.57;;;373.87;;
16693;SDS011;39538;52.196;9.892;2022-08-26T04:22:32;383.60;;;363.97;;
16693;SDS011;39538;52.196;9.892;2022-08-26T04:24:59;392.13;;;372.03;;
16693;SDS011;39538;52.196;9.892;2022-08-26T04:27:26;372.97;;;354.93;;
16693;SDS011;39538;52.196;9.892;2022-08-26T04:29:54;372.40;;;353.57;;
16693;SDS011;39538;52.196;9.892;2022-08-26T04:32:20;374.90;;;356.07;;
16693;SDS011;39538;52.196;9.892;2022-08-26T04:34:47;374.47;;;355.83;;
16693;SDS011;39538;52.196;9.892;2022-08-26T04:37:13;383.83;;;364.43;;
16693;SDS011;39538;52.196;9.892;2022-08-26T04:39:40;375.13;;;356.63;;
16693;SDS011;39538;52.196;9.892;2022-08-26T04:42:07;391.33;;;371.73;;
16693;SDS011;39538;52.196;9.892;2022-08-26T04:44:34;391.23;;;371.77;;
16693;SDS011;39538;52.196;9.892;2022-08-26T04:47:03;384.30;;;365.37;;
16693;SDS011;39538;52.196;9.892;2022-08-26T04:49:30;398.87;;;378.27;;
16693;SDS011;39538;52.196;9.892;2022-08-26T04:51:56;406.17;;;384.63;;
16693;SDS011;39538;52.196;9.892;2022-08-26T04:54:23;411.10;;;389.97;;
16693;SDS011;39538;52.196;9.892;2022-08-26T04:56:50;430.20;;;406.90;;
16693;SDS011;39538;52.196;9.892;2022-08-26T04:59:16;434.77;;;411.77;;
16693;SDS011;39538;52.196;9.892;2022-08-26T05:01:44;425.87;;;403.73;;
16693;SDS011;39538;52.196;9.892;2022-08-26T05:04:14;434.33;;;411.37;;
16693;SDS011;39538;52.196;9.892;2022-08-26T05:06:41;432.77;;;409.83;;
16693;SDS011;39538;52.196;9.892;2022-08-26T05:09:07;420.40;;;399.43;;
16693;SDS011;39538;52.196;9.892;2022-08-26T05:11:34;419.93;;;398.23;;
16693;SDS011;39538;52.196;9.892;2022-08-26T05:14:01;422.67;;;400.47;;
16693;SDS011;39538;52.196;9.892;2022-08-26T05:16:29;417.80;;;396.20;;
16693;SDS011;39538;52.196;9.892;2022-08-26T05:18:55;420.10;;;397.83;;
16693;SDS011;39538;52.196;9.892;2022-08-26T05:21:24;407.37;;;386.67;;
16693;SDS011;39538;52.196;9.892;2022-08-26T05:23:52;411.63;;;390.47;;
16693;SDS011;39538;52.196;9.892;2022-08-26T05:26:19;393.83;;;373.73;;
16693;SDS011;39538;52.196;9.892;2022-08-26T05:28:46;417.47;;;396.30;;
16693;SDS011;39538;52.196;9.892;2022-08-26T05:31:14;409.13;;;386.63;;
16693;SDS011;39538;52.196;9.892;2022-08-26T05:33:42;406.73;;;386.17;;
16693;SDS011;39538;52.196;9.892;2022-08-26T05:36:10;416.70;;;395.47;;
16693;SDS011;39538;52.196;9.892;2022-08-26T05:38:40;416.07;;;395.30;;
16693;SDS011;39538;52.196;9.892;2022-08-26T05:41:12;403.33;;;382.40;;
16693;SDS011;39538;52.196;9.892;2022-08-26T05:43:40;407.13;;;385.43;;
16693;SDS011;39538;52.196;9.892;2022-08-26T05:46:06;409.67;;;388.23;;
16693;SDS011;39538;52.196;9.892;2022-08-26T05:48:33;405.83;;;383.83;;
16693;SDS011;39538;52.196;9.892;2022-08-26T05:51:01;407.73;;;384.93;;
16693;SDS011;39538;52.196;9.892;2022-08-26T05:53:30;414.50;;;392.80;;
16693;SDS011;39538;52.196;9.892;2022-08-26T05:55:58;417.80;;;396.73;;
16693;SDS011;39538;52.196;9.892;2022-08-26T05:58:25;414.57;;;392.33;;
16693;SDS011;39538;52.196;9.892;2022-08-26T06:00:56;387.53;;;368.03;;
16693;SDS011;39538;52.196;9.892;2022-08-26T06:03:25;403.80;;;382.93;;
16693;SDS011;39538;52.196;9.892;2022-08-26T06:05:51;417.20;;;395.53;;
16693;SDS011;39538;52.196;9.892;2022-08-26T06:08:18;405.07;;;382.77;;
16693;SDS011;39538;52.196;9.892;2022-08-26T06:10:45;402.57;;;381.10;;
16693;SDS011;39538;52.196;9.892;2022-08-26T06:13:15;402.63;;;380.83;;
16693;SDS011;39538;52.196;9.892;2022-08-26T06:15:43;403.77;;;383.13;;
16693;SDS011;39538;52.196;9.892;2022-08-26T06:18:12;421.27;;;399.63;;
16693;SDS011;39538;52.196;9.892;2022-08-26T06:20:39;422.47;;;399.23;;
16693;SDS011;39538;52.196;9.892;2022-08-26T06:23:08;415.17;;;393.53;;
16693;SDS011;39538;52.196;9.892;2022-08-26T06:25:53;395.60;;;375.13;;
16693;SDS011;39538;52.196;9.892;2022-08-26T06:28:21;403.43;;;381.90;;
16693;SDS011;39538;52.196;9.892;2022-08-26T06:30:48;431.30;;;408.40;;
16693;SDS011;39538;52.196;9.892;2022-08-26T06:33:15;414.87;;;391.73;;
16693;SDS011;39538;52.196;9.892;2022-08-26T06:35:42;392.37;;;371.23;;
16693;SDS011;39538;52.196;9.892;2022-08-26T06:38:09;391.13;;;371.57;;
16693;SDS011;39538;52.196;9.892;2022-08-26T06:40:39;407.50;;;385.27;;
16693;SDS011;39538;52.196;9.892;2022-08-26T06:43:06;397.90;;;376.20;;
16693;SDS011;39538;52.196;9.892;2022-08-26T06:45:34;394.93;;;373.67;;
16693;SDS011;39538;52.196;9.892;2022-08-26T06:48:00;397.30;;;376.83;;
16693;SDS011;39538;52.196;9.892;2022-08-26T06:50:26;387.67;;;367.67;;
16693;SDS011;39538;52.196;9.892;2022-08-26T06:52:53;398.67;;;378.13;;
16693;SDS011;39538;52.196;9.892;2022-08-26T06:55:20;389.30;;;368.73;;
16693;SDS011;39538;52.196;9.892;2022-08-26T06:57:46;389.87;;;369.70;;
16693;SDS011;39538;52.196;9.892;2022-08-26T07:00:13;398.43;;;378.13;;
16693;SDS011;39538;52.196;9.892;2022-08-26T07:02:41;387.13;;;366.03;;
16693;SDS011;39538;52.196;9.892;2022-08-26T07:05:08;388.90;;;368.33;;
16693;SDS011;39538;52.196;9.892;2022-08-26T07:07:35;385.77;;;364.07;;
16693;SDS011;39538;52.196;9.892;2022-08-26T07:10:02;380.10;;;360.27;;
16693;SDS011;39538;52.196;9.892;2022-08-26T07:12:29;393.70;;;373.07;;
16693;SDS011;39538;52.196;9.892;2022-08-26T07:14:56;402.90;;;380.27;;
16693;SDS011;39538;52.196;9.892;2022-08-26T07:17:22;396.47;;;375.43;;
16693;SDS011;39538;52.196;9.892;2022-08-26T07:19:50;378.80;;;358.83;;
16693;SDS011;39538;52.196;9.892;2022-08-26T07:22:17;379.47;;;359.70;;
16693;SDS011;39538;52.196;9.892;2022-08-26T07:24:44;377.17;;;357.77;;
16693;SDS011;39538;52.196;9.892;2022-08-26T07:27:11;390.77;;;370.33;;
16693;SDS011;39538;52.196;9.892;2022-08-26T07:29:43;389.37;;;367.67;;
16693;SDS011;39538;52.196;9.892;2022-08-26T07:32:10;395.50;;;374.80;;
16693;SDS011;39538;52.196;9.892;2022-08-26T07:34:38;401.37;;;380.13;;
16693;SDS011;39538;52.196;9.892;2022-08-26T07:37:06;383.50;;;364.13;;
16693;SDS011;39538;52.196;9.892;2022-08-26T07:39:33;387.93;;;368.10;;
16693;SDS011;39538;52.196;9.892;2022-08-26T07:42:00;386.00;;;365.20;;
16693;SDS011;39538;52.196;9.892;2022-08-26T07:44:27;401.20;;;380.47;;
16693;SDS011;39538;52.196;9.892;2022-08-26T07:46:54;402.00;;;380.27;;
16693;SDS011;39538;52.196;9.892;2022-08-26T07:49:21;408.10;;;386.80;;
16693;SDS011;39538;52.196;9.892;2022-08-26T07:51:48;402.17;;;381.30;;
16693;SDS011;39538;52.196;9.892;2022-08-26T07:54:17;402.87;;;381.17;;
16693;SDS011;39538;52.196;9.892;2022-08-26T07:56:44;417.47;;;395.33;;
16693;SDS011;39538;52.196;9.892;2022-08-26T07:59:12;414.40;;;392.83;;
16693;SDS011;39538;52.196;9.892;2022-08-26T08:01:38;418.87;;;396.13;;
16693;SDS011;39538;52.196;9.892;2022-08-26T08:04:05;406.67;;;385.40;;
16693;SDS011;39538;52.196;9.892;2022-08-26T08:06:32;399.13;;;378.80;;
16693;SDS011;39538;52.196;9.892;2022-08-26T08:08:58;407.83;;;386.80;;
16693;SDS011;39538;52.196;9.892;2022-08-26T08:11:26;417.67;;;394.87;;
16693;SDS011;39538;52.196;9.892;2022-08-26T08:13:55;406.27;;;384.33;;
16693;SDS011;39538;52.196;9.892;2022-08-26T08:16:22;411.57;;;389.57;;
16693;SDS011;39538;52.196;9.892;2022-08-26T08:18:49;400.20;;;379.53;;
16693;SDS011;39538;52.196;9.892;2022-08-26T08:21:16;405.23;;;383.83;;
16693;SDS011;39538;52.196;9.892;2022-08-26T08:23:42;401.13;;;380.70;;
16693;SDS011;39538;52.196;9.892;2022-08-26T08:26:09;409.27;;;387.77;;
16693;SDS011;39538;52.196;9.892;2022-08-26T08:28:37;396.17;;;375.53;;
16693;SDS011;39538;52.196;9.892;2022-08-26T08:31:04;416.20;;;393.40;;
16693;SDS011;39538;52.196;9.892;2022-08-26T08:33:31;414.33;;;392.73;;
16693;SDS011;39538;52.196;9.892;2022-08-26T08:35:59;410.20;;;389.03;;
16693;SDS011;39538;52.196;9.892;2022-08-26T08:38:26;412.47;;;390.70;;
16693;SDS011;39538;52.196;9.892;2022-08-26T08:40:52;399.23;;;377.73;;
16693;SDS011;39538;52.196;9.892;2022-08-26T08:43:22;347.50;;;328.20;;
16693;SDS011;39538;52.196;9.892;2022-08-26T08:45:58;336.02;;;317.35;;
16693;SDS011;39538;52.196;9.892;2022-08-26T08:48:29;295.77;;;280.45;;
16693;SDS011;39538;52.196;9.892;2022-08-26T08:51:01;291.67;;;277.35;;
16693;SDS011;39538;52.196;9.892;2022-08-26T08:53:32;285.95;;;270.90;;
16693;SDS011;39538;52.196;9.892;2022-08-26T08:56:06;232.85;;;220.48;;
16693;SDS011;39538;52.196;9.892;2022-08-26T08:58:42;227.77;;;215.15;;
16693;SDS011;39538;52.196;9.892;2022-08-26T09:01:21;184.23;;;174.32;;
16693;SDS011;39538;52.196;9.892;2022-08-26T09:03:54;171.95;;;162.68;;
16693;SDS011;39538;52.196;9.892;2022-08-26T09:06:36;159.20;;;150.52;;
16693;SDS011;39538;52.196;9.892;2022-08-26T09:09:03;161.20;;;153.23;;
16693;SDS011;39538;52.196;9.892;2022-08-26T09:11:32;156.38;;;148.55;;
16693;SDS011;39538;52.196;9.892;2022-08-26T09:14:00;178.35;;;169.38;;
16693;SDS011;39538;52.196;9.892;2022-08-26T09:16:31;163.43;;;155.15;;
16693;SDS011;39538;52.196;9.892;2022-08-26T09:19:12;159.30;;;150.98;;
16693;SDS011;39538;52.196;9.892;2022-08-26T09:21:53;164.48;;;155.55;;
16693;SDS011;39538;52.196;9.892;2022-08-26T09:24:20;165.25;;;155.90;;
16693;SDS011;39538;52.196;9.892;2022-08-26T09:26:47;162.15;;;153.05;;
16693;SDS011;39538;52.196;9.892;2022-08-26T09:29:18;206.65;;;196.05;;
16693;SDS011;39538;52.196;9.892;2022-08-26T09:31:48;176.68;;;166.60;;
16693;SDS011;39538;52.196;9.892;2022-08-26T09:34:16;153.88;;;145.80;;
16693;SDS011;39538;52.196;9.892;2022-08-26T09:36:45;191.73;;;181.35;;
16693;SDS011;39538;52.196;9.892;2022-08-26T09:39:27;180.00;;;170.35;;
16693;SDS011;39538;52.196;9.892;2022-08-26T09:42:01;160.80;;;151.98;;
16693;SDS011;39538;52.196;9.892;2022-08-26T09:44:30;199.77;;;188.48;;
16693;SDS011;39538;52.196;9.892;2022-08-26T09:47:00;153.27;;;145.35;;
16693;SDS011;39538;52.196;9.892;2022-08-26T09:49:31;185.93;;;175.45;;
16693;SDS011;39538;52.196;9.892;2022-08-26T09:52:09;178.48;;;169.15;;
16693;SDS011;39538;52.196;9.892;2022-08-26T09:54:40;156.32;;;148.25;;
16693;SDS011;39538;52.196;9.892;2022-08-26T09:59:53;159.45;;;150.75;;
16693;SDS011;39538;52.196;9.892;2022-08-26T10:02:26;189.23;;;180.30;;
16693;SDS011;39538;52.196;9.892;2022-08-26T10:05:08;193.10;;;183.25;;
16693;SDS011;39538;52.196;9.892;2022-08-26T10:07:41;179.13;;;170.02;;
16693;SDS011;39538;52.196;9.892;2022-08-26T10:10:12;160.15;;;152.02;;
16693;SDS011;39538;52.196;9.892;2022-08-26T10:12:45;149.05;;;141.82;;
16693;SDS011;39538;52.196;9.892;2022-08-26T10:15:16;186.52;;;177.30;;
16693;SDS011;39538;52.196;9.892;2022-08-26T10:17:47;175.82;;;166.27;;
16693;SDS011;39538;52.196;9.892;2022-08-26T10:20:19;171.63;;;162.32;;
16693;SDS011;39538;52.196;9.892;2022-08-26T10:22:52;197.77;;;187.57;;
16693;SDS011;39538;52.196;9.892;2022-08-26T10:25:25;199.88;;;189.52;;
16693;SDS011;39538;52.196;9.892;2022-08-26T10:27:58;178.20;;;169.35;;
16693;SDS011;39538;52.196;9.892;2022-08-26T10:30:31;192.93;;;182.55;;
16693;SDS011;39538;52.196;9.892;2022-08-26T10:33:04;195.68;;;185.02;;
16693;SDS011;39538;52.196;9.892;2022-08-26T10:35:32;192.35;;;181.80;;
16693;SDS011;39538;52.196;9.892;2022-08-26T10:38:02;198.43;;;187.88;;
16693;SDS011;39538;52.196;9.892;2022-08-26T10:40:36;186.10;;;176.68;;
16693;SDS011;39538;52.196;9.892;2022-08-26T10:43:13;193.40;;;183.57;;
16693;SDS011;39538;52.196;9.892;2022-08-26T10:45:45;206.50;;;196.18;;
16693;SDS011;39538;52.196;9.892;2022-08-26T10:48:17;179.32;;;170.70;;
16693;SDS011;39538;52.196;9.892;2022-08-26T10:50:49;211.82;;;200.43;;
16693;SDS011;39538;52.196;9.892;2022-08-26T10:53:16;201.75;;;190.77;;
16693;SDS011;39538;52.196;9.892;2022-08-26T10:55:49;162.98;;;155.07;;
16693;SDS011;39538;52.196;9.892;2022-08-26T10:58:24;193.68;;;183.68;;
16693;SDS011;39538;52.196;9.892;2022-08-26T11:00:58;177.20;;;167.93;;
16693;SDS011;39538;52.196;9.892;2022-08-26T11:03:55;170.35;;;160.82;;
16693;SDS011;39538;52.196;9.892;2022-08-26T11:06:28;182.85;;;173.13;;
16693;SDS011;39538;52.196;9.892;2022-08-26T11:08:56;185.73;;;176.68;;
16693;SDS011;39538;52.196;9.892;2022-08-26T11:11:44;176.95;;;167.73;;
16693;SDS011;39538;52.196;9.892;2022-08-26T11:17:01;157.45;;;149.70;;
16693;SDS011;39538;52.196;9.892;2022-08-26T11:22:25;123.13;;;116.55;;
16693;SDS011;39538;52.196;9.892;2022-08-26T11:25:04;163.73;;;155.65;;
16693;SDS011;39538;52.196;9.892;2022-08-26T11:30:43;145.07;;;137.77;;
16693;SDS011;39538;52.196;9.892;2022-08-26T11:39:19;118.40;;;112.15;;
16693;SDS011;39538;52.196;9.892;2022-08-26T11:41:50;152.32;;;143.93;;
16693;SDS011;39538;52.196;9.892;2022-08-26T11:44:19;173.52;;;163.98;;
16693;SDS011;39538;52.196;9.892;2022-08-26T11:46:52;165.30;;;156.10;;
16693;SDS011;39538;52.196;9.892;2022-08-26T11:49:20;168.48;;;159.15;;
16693;SDS011;39538;52.196;9.892;2022-08-26T11:51:48;178.90;;;168.80;;
16693;SDS011;39538;52.196;9.892;2022-08-26T11:54:15;177.13;;;168.18;;
16693;SDS011;39538;52.196;9.892;2022-08-26T11:56:44;199.20;;;188.63;;
16693;SDS011;39538;52.196;9.892;2022-08-26T11:59:14;172.98;;;163.25;;
16693;SDS011;39538;52.196;9.892;2022-08-26T12:01:48;154.63;;;146.38;;
16693;SDS011;39538;52.196;9.892;2022-08-26T12:04:19;157.68;;;149.13;;
16693;SDS011;39538;52.196;9.892;2022-08-26T12:06:53;165.68;;;156.38;;
16693;SDS011;39538;52.196;9.892;2022-08-26T12:09:23;159.93;;;151.57;;
16693;SDS011;39538;52.196;9.892;2022-08-26T12:11:52;140.57;;;132.43;;
16693;SDS011;39538;52.196;9.892;2022-08-26T12:14:33;135.85;;;128.63;;
16693;SDS011;39538;52.196;9.892;2022-08-26T12:17:06;128.25;;;121.60;;
16693;SDS011;39538;52.196;9.892;2022-08-26T12:19:34;140.63;;;133.48;;
16693;SDS011;39538;52.196;9.892;2022-08-26T12:22:03;133.85;;;126.65;;
16693;SDS011;39538;52.196;9.892;2022-08-26T12:24:33;133.63;;;126.38;;
16693;SDS011;39538;52.196;9.892;2022-08-26T12:27:10;159.95;;;151.10;;
16693;SDS011;39538;52.196;9.892;2022-08-26T12:29:41;149.43;;;141.30;;
16693;SDS011;39538;52.196;9.892;2022-08-26T12:32:08;178.25;;;168.82;;
16693;SDS011;39538;52.196;9.892;2022-08-26T12:34:37;171.85;;;163.00;;
16693;SDS011;39538;52.196;9.892;2022-08-26T12:37:07;157.75;;;149.85;;
16693;SDS011;39538;52.196;9.892;2022-08-26T12:39:37;171.15;;;161.50;;
16693;SDS011;39538;52.196;9.892;2022-08-26T12:42:19;168.02;;;158.77;;
16693;SDS011;39538;52.196;9.892;2022-08-26T12:44:48;183.38;;;174.57;;
16693;SDS011;39538;52.196;9.892;2022-08-26T12:47:23;196.30;;;186.43;;
16693;SDS011;39538;52.196;9.892;2022-08-26T12:49:57;184.23;;;174.73;;
16693;SDS011;39538;52.196;9.892;2022-08-26T12:52:28;182.45;;;172.85;;
16693;SDS011;39538;52.196;9.892;2022-08-26T12:54:56;167.35;;;158.80;;
16693;SDS011;39538;52.196;9.892;2022-08-26T12:57:26;182.43;;;172.45;;
16693;SDS011;39538;52.196;9.892;2022-08-26T12:59:53;187.30;;;177.73;;
16693;SDS011;39538;52.196;9.892;2022-08-26T13:02:35;174.73;;;165.90;;
16693;SDS011;39538;52.196;9.892;2022-08-26T13:05:03;182.93;;;174.27;;
16693;SDS011;39538;52.196;9.892;2022-08-26T13:07:31;166.93;;;158.25;;
16693;SDS011;39538;52.196;9.892;2022-08-26T13:09:59;174.80;;;166.13;;
16693;SDS011;39538;52.196;9.892;2022-08-26T13:12:27;157.75;;;149.65;;
16693;SDS011;39538;52.196;9.892;2022-08-26T13:14:55;177.68;;;168.38;;
16693;SDS011;39538;52.196;9.892;2022-08-26T13:17:23;172.07;;;162.98;;
16693;SDS011;39538;52.196;9.892;2022-08-26T13:19:50;141.38;;;134.43;;
16693;SDS011;39538;52.196;9.892;2022-08-26T13:22:18;147.30;;;139.00;;
16693;SDS011;39538;52.196;9.892;2022-08-26T13:24:49;150.05;;;141.98;;
16693;SDS011;39538;52.196;9.892;2022-08-26T13:27:20;156.98;;;147.77;;
16693;SDS011;39538;52.196;9.892;2022-08-26T13:29:48;130.65;;;123.43;;
16693;SDS011;39538;52.196;9.892;2022-08-26T13:32:15;136.52;;;129.05;;
16693;SDS011;39538;52.196;9.892;2022-08-26T13:34:44;115.55;;;108.78;;
16693;SDS011;39538;52.196;9.892;2022-08-26T13:37:12;120.38;;;114.38;;
16693;SDS011;39538;52.196;9.892;2022-08-26T13:39:39;127.65;;;120.85;;
16693;SDS011;39538;52.196;9.892;2022-08-26T13:42:07;120.78;;;113.72;;
16693;SDS011;39538;52.196;9.892;2022-08-26T13:44:34;109.78;;;103.60;;
16693;SDS011;39538;52.196;9.892;2022-08-26T13:47:02;123.35;;;116.70;;
16693;SDS011;39538;52.196;9.892;2022-08-26T13:49:29;115.25;;;109.93;;
16693;SDS011;39538;52.196;9.892;2022-08-26T13:51:56;117.90;;;112.40;;
16693;SDS011;39538;52.196;9.892;2022-08-26T13:54:22;113.07;;;106.93;;
16693;SDS011;39538;52.196;9.892;2022-08-26T13:56:49;138.23;;;130.60;;
16693;SDS011;39538;52.196;9.892;2022-08-26T13:59:17;118.95;;;112.70;;
16693;SDS011;39538;52.196;9.892;2022-08-26T14:01:43;113.38;;;107.20;;
16693;SDS011;39538;52.196;9.892;2022-08-26T14:04:09;97.80;;;91.88;;
16693;SDS011;39538;52.196;9.892;2022-08-26T14:06:36;102.55;;;96.88;;
16693;SDS011;39538;52.196;9.892;2022-08-26T14:09:02;125.13;;;117.65;;
16693;SDS011;39538;52.196;9.892;2022-08-26T14:11:29;108.22;;;101.78;;
16693;SDS011;39538;52.196;9.892;2022-08-26T14:13:55;107.57;;;102.00;;
16693;SDS011;39538;52.196;9.892;2022-08-26T14:16:24;116.85;;;110.45;;
16693;SDS011;39538;52.196;9.892;2022-08-26T14:18:55;114.63;;;109.28;;
16693;SDS011;39538;52.196;9.892;2022-08-26T14:21:25;115.05;;;108.20;;
16693;SDS011;39538;52.196;9.892;2022-08-26T14:23:53;98.82;;;93.10;;